createdAt,value
2022-09-04T00:00:56.928Z,21.00
2022-09-04T00:03:39.862Z,20.90
2022-09-04T00:06:22.543Z,20.90
2022-09-04T00:09:06.431Z,20.90
2022-09-04T00:11:52.636Z,20.90
2022-09-04T00:14:23.767Z,20.90
2022-09-04T00:17:05.927Z,20.80
2022-09-04T00:19:41.046Z,20.80
2022-09-04T00:22:27.521Z,20.80
2022-09-04T00:25:13.063Z,20.80
2022-09-04T00:27:46.092Z,20.80
2022-09-04T00:33:27.434Z,20.80
2022-09-04T00:36:03.224Z,20.70
2022-09-04T00:38:43.104Z,20.70
2022-09-04T00:41:27.677Z,20.70
2022-09-04T00:44:10.501Z,20.70
2022-09-04T00:47:10.753Z,20.60
2022-09-04T00:49:50.888Z,20.60
2022-09-04T00:52:38.680Z,20.50
2022-09-04T00:55:21.916Z,20.50
2022-09-04T00:58:25.376Z,20.50
2022-09-04T01:00:58.157Z,20.50
2022-09-04T01:03:55.285Z,20.50
2022-09-04T01:06:40.347Z,20.50
2022-09-04T01:09:47.928Z,20.50
2022-09-04T01:12:31.015Z,20.50
2022-09-04T01:15:22.154Z,20.50
2022-09-04T01:18:03.505Z,20.50
2022-09-04T01:20:53.214Z,20.50
2022-09-04T01:23:57.127Z,20.40
2022-09-04T01:26:33.987Z,20.40
2022-09-04T01:29:23.459Z,20.40
2022-09-04T01:31:59.959Z,20.40
2022-09-04T01:34:53.219Z,20.40
2022-09-04T01:37:49.376Z,20.40
2022-09-04T01:40:35.766Z,20.40
2022-09-04T01:43:17.158Z,20.30
2022-09-04T01:46:22.247Z,20.30
2022-09-04T01:48:55.622Z,20.30
2022-09-04T01:51:33.496Z,20.20
2022-09-04T01:54:23.846Z,20.20
2022-09-04T01:57:01.872Z,20.20
2022-09-04T01:59:42.105Z,20.20
2022-09-04T02:02:34.455Z,20.20
2022-09-04T02:05:14.391Z,20.20
2022-09-04T02:07:48.841Z,20.20
2022-09-04T02:10:39.688Z,20.20
2022-09-04T02:13:17.817Z,20.20
2022-09-04T02:16:09.106Z,20.20
2022-09-04T02:18:47.203Z,20.20
2022-09-04T02:21:43.604Z,20.10
2022-09-04T02:24:23.405Z,20.10
2022-09-04T02:27:08.052Z,20.10
2022-09-04T02:29:49.151Z,20.10
2022-09-04T02:32:23.679Z,20.10
2022-09-04T02:34:58.419Z,20.10
2022-09-04T02:37:47.542Z,20.10
2022-09-04T02:40:21.590Z,20.10
2022-09-04T02:43:08.103Z,20.10
2022-09-04T02:45:49.788Z,20.10
2022-09-04T02:48:25.531Z,20.00
2022-09-04T02:51:13.945Z,20.00
2022-09-04T02:53:51.063Z,20.00
2022-09-04T02:56:35.564Z,20.00
2022-09-04T02:59:14.993Z,20.00
2022-09-04T03:01:51.968Z,19.90
2022-09-04T03:04:28.347Z,19.90
2022-09-04T03:07:02.334Z,19.90
2022-09-04T03:09:35.929Z,19.90
2022-09-04T03:12:28.371Z,19.90
2022-09-04T03:15:03.936Z,19.90
2022-09-04T03:17:41.305Z,19.90
2022-09-04T03:23:09.992Z,19.90
2022-09-04T03:25:55.714Z,19.80
2022-09-04T03:28:41.941Z,19.80
2022-09-04T03:31:34.807Z,19.80
2022-09-04T03:34:20.484Z,19.80
2022-09-04T03:37:06.051Z,19.80
2022-09-04T03:39:53.611Z,19.80
2022-09-04T03:42:38.942Z,19.80
2022-09-04T03:45:20.884Z,19.70
2022-09-04T03:48:06.097Z,19.70
2022-09-04T03:50:51.058Z,19.70
2022-09-04T03:53:30.550Z,19.70
2022-09-04T03:56:21.030Z,19.70
2022-09-04T03:59:01.976Z,19.70
2022-09-04T04:01:42.620Z,19.70
2022-09-04T04:04:39.950Z,19.60
2022-09-04T04:07:14.992Z,19.60
2022-09-04T04:10:13.766Z,19.60
2022-09-04T04:13:12.329Z,19.60
2022-09-04T04:15:54.269Z,19.60
2022-09-04T04:18:55.326Z,19.60
2022-09-04T04:21:32.690Z,19.60
2022-09-04T04:24:31.485Z,19.50
2022-09-04T04:27:18.947Z,19.50
2022-09-04T04:30:07.295Z,19.50
2022-09-04T04:33:00.771Z,19.50
2022-09-04T04:35:34.910Z,19.50
2022-09-04T04:38:18.343Z,19.50
2022-09-04T04:41:06.386Z,19.50
2022-09-04T04:43:50.164Z,19.40
2022-09-04T04:46:23.094Z,19.40
2022-09-04T04:49:10.480Z,19.40
2022-09-04T04:52:00.993Z,19.40
2022-09-04T04:54:51.300Z,19.50
2022-09-04T04:57:31.179Z,19.40
2022-09-04T05:00:11.554Z,19.40
2022-09-04T05:02:49.523Z,19.40
2022-09-04T05:05:31.031Z,19.40
2022-09-04T05:08:09.492Z,19.40
2022-09-04T05:10:46.529Z,19.40
2022-09-04T05:13:23.944Z,19.40
2022-09-04T05:16:09.250Z,19.40
2022-09-04T05:18:53.922Z,19.40
2022-09-04T05:21:32.183Z,19.40
2022-09-04T05:24:05.457Z,19.40
2022-09-04T05:26:44.805Z,19.40
2022-09-04T05:29:32.762Z,19.40
2022-09-04T05:32:10.838Z,19.40
2022-09-04T05:35:06.545Z,19.40
2022-09-04T05:37:45.276Z,19.40
2022-09-04T05:40:24.560Z,19.40
2022-09-04T05:43:17.800Z,19.40
2022-09-04T05:45:59.098Z,19.40
2022-09-04T05:48:46.924Z,19.40
2022-09-04T05:51:52.921Z,19.40
2022-09-04T05:54:52.465Z,19.40
2022-09-04T05:57:39.428Z,19.40
2022-09-04T06:00:14.576Z,19.40
2022-09-04T06:03:24.282Z,19.40
2022-09-04T06:06:11.149Z,19.50
2022-09-04T06:09:07.525Z,19.50
2022-09-04T06:11:52.729Z,19.50
2022-09-04T06:14:43.120Z,19.50
2022-09-04T06:17:29.658Z,19.50
2022-09-04T06:20:30.316Z,19.50
2022-09-04T06:23:27.133Z,19.60
2022-09-04T06:26:20.726Z,19.60
2022-09-04T06:29:14.660Z,19.60
2022-09-04T06:32:24.136Z,19.60
2022-09-04T06:35:19.001Z,19.70
2022-09-04T06:37:52.390Z,19.70
2022-09-04T06:40:35.390Z,19.70
2022-09-04T06:43:15.971Z,19.70
2022-09-04T06:46:02.204Z,19.70
2022-09-04T06:48:43.702Z,19.80
2022-09-04T06:51:23.968Z,19.80
2022-09-04T06:54:00.525Z,19.90
2022-09-04T06:56:45.246Z,19.90
2022-09-04T06:59:42.677Z,20.00
2022-09-04T07:02:25.991Z,20.00
2022-09-04T07:05:05.191Z,20.10
2022-09-04T07:07:42.489Z,20.10
2022-09-04T07:10:18.231Z,20.20
2022-09-04T07:13:23.640Z,20.20
2022-09-04T07:16:16.616Z,20.30
2022-09-04T07:19:22.336Z,20.30
2022-09-04T07:22:00.121Z,20.40
2022-09-04T07:24:59.485Z,20.40
2022-09-04T07:27:54.779Z,20.50
2022-09-04T07:30:39.439Z,20.60
2022-09-04T07:33:14.109Z,20.60
2022-09-04T07:35:49.308Z,20.60
2022-09-04T07:38:36.722Z,20.60
2022-09-04T07:41:17.741Z,20.70
2022-09-04T07:43:55.062Z,20.70
2022-09-04T07:46:40.263Z,20.80
2022-09-04T07:49:18.795Z,20.80
2022-09-04T07:51:54.763Z,20.90
2022-09-04T07:54:52.158Z,20.90
2022-09-04T07:57:52.507Z,21.00
2022-09-04T08:00:22.788Z,21.00
2022-09-04T08:03:22.431Z,21.00
2022-09-04T08:05:56.992Z,21.10
2022-09-04T08:08:56.883Z,21.10
2022-09-04T08:12:06.048Z,21.20
2022-09-04T08:14:54.515Z,21.20
2022-09-04T08:17:53.009Z,21.30
2022-09-04T08:20:41.341Z,21.40
2022-09-04T08:23:42.435Z,21.40
2022-09-04T08:26:24.169Z,21.50
2022-09-04T08:29:24.581Z,21.50
2022-09-04T08:32:04.557Z,21.60
2022-09-04T08:34:57.843Z,21.70
2022-09-04T08:37:39.548Z,21.80
2022-09-04T08:40:59.657Z,21.80
2022-09-04T08:43:55.921Z,21.90
2022-09-04T08:46:49.440Z,22.10
2022-09-04T08:49:58.059Z,22.10
2022-09-04T08:53:03.158Z,22.20
2022-09-04T08:56:03.763Z,22.20
2022-09-04T08:59:25.613Z,22.40
2022-09-04T09:02:27.508Z,22.50
2022-09-04T09:05:28.921Z,22.50
2022-09-04T09:08:20.021Z,22.60
2022-09-04T09:11:25.384Z,22.70
2022-09-04T09:14:36.455Z,22.80
2022-09-04T09:17:17.017Z,22.90
2022-09-04T09:19:59.724Z,23.00
2022-09-04T09:23:21.060Z,23.10
2022-09-04T09:25:56.689Z,23.20
2022-09-04T09:29:02.122Z,23.30
2022-09-04T09:32:18.701Z,23.40
2022-09-04T09:35:13.454Z,23.50
2022-09-04T09:38:26.175Z,23.50
2022-09-04T09:41:33.638Z,23.60
2022-09-04T09:44:36.246Z,23.70
2022-09-04T09:47:39.780Z,23.80
2022-09-04T09:50:44.322Z,23.80
2022-09-04T09:54:05.685Z,24.00
2022-09-04T09:57:25.529Z,24.00
2022-09-04T10:00:21.333Z,24.10
2022-09-04T10:03:39.408Z,24.10
2022-09-04T10:06:33.743Z,24.30
2022-09-04T10:09:52.617Z,24.30
2022-09-04T10:13:05.979Z,24.40
2022-09-04T10:16:03.039Z,24.50
2022-09-04T10:19:03.695Z,24.50
2022-09-04T10:22:23.191Z,24.60
2022-09-04T10:25:38.861Z,24.70
2022-09-04T10:28:42.889Z,24.80
2022-09-04T10:31:44.526Z,24.90
2022-09-04T10:35:02.817Z,24.90
2022-09-04T10:37:53.990Z,25.00
2022-09-04T10:40:51.319Z,25.10
2022-09-04T10:43:48.688Z,25.20
2022-09-04T10:46:27.507Z,25.30
2022-09-04T10:49:30.454Z,25.40
2022-09-04T10:52:44.098Z,25.50
2022-09-04T10:55:42.857Z,25.60
2022-09-04T10:58:40.073Z,25.70
2022-09-04T11:01:47.708Z,25.80
2022-09-04T11:04:49.543Z,25.90
2022-09-04T11:07:55.813Z,26.00
2022-09-04T11:10:38.657Z,26.10
2022-09-04T11:13:58.667Z,26.20
2022-09-04T11:16:51.108Z,26.30
2022-09-04T11:20:00.567Z,26.30
2022-09-04T11:23:07.197Z,26.30
2022-09-04T11:26:08.984Z,26.40
2022-09-04T11:29:11.021Z,26.50
2022-09-04T11:32:12.770Z,26.50
2022-09-04T11:35:14.310Z,26.50
2022-09-04T11:38:20.322Z,26.60
2022-09-04T11:41:18.884Z,26.70
2022-09-04T11:44:19.988Z,26.70
2022-09-04T11:47:49.193Z,26.80
2022-09-04T11:50:39.783Z,26.90
2022-09-04T11:53:36.891Z,26.90
2022-09-04T11:56:31.419Z,27.00
2022-09-04T11:59:30.238Z,27.10
2022-09-04T12:02:22.415Z,27.10
2022-09-04T12:05:17.429Z,27.10
2022-09-04T12:08:18.992Z,27.10
2022-09-04T12:11:04.197Z,27.20
2022-09-04T12:14:06.285Z,27.20
2022-09-04T12:17:06.119Z,27.30
2022-09-04T12:20:11.608Z,27.40
2022-09-04T12:23:21.597Z,27.40
2022-09-04T12:26:51.357Z,27.50
2022-09-04T12:30:13.562Z,27.50
2022-09-04T12:33:13.750Z,27.60
2022-09-04T12:36:37.065Z,27.60
2022-09-04T12:39:56.413Z,27.60
2022-09-04T12:42:27.543Z,27.60
2022-09-04T12:45:06.804Z,27.70
2022-09-04T12:47:57.489Z,27.70
2022-09-04T12:50:33.401Z,27.80
2022-09-04T12:53:26.114Z,27.90
2022-09-04T12:56:03.847Z,28.00
2022-09-04T12:58:55.254Z,28.10
2022-09-04T13:01:40.202Z,28.20
2022-09-04T13:04:19.587Z,28.30
2022-09-04T13:07:11.049Z,28.30
2022-09-04T13:10:04.786Z,28.30
2022-09-04T13:12:53.652Z,28.30
2022-09-04T13:15:35.110Z,28.30
2022-09-04T13:18:35.592Z,28.30
2022-09-04T13:21:25.815Z,28.40
2022-09-04T13:24:16.564Z,28.40
2022-09-04T13:27:10.166Z,28.50
2022-09-04T13:30:03.442Z,28.50
2022-09-04T13:32:57.716Z,28.60
2022-09-04T13:35:50.120Z,28.60
2022-09-04T13:38:44.864Z,28.70
2022-09-04T13:41:33.137Z,28.70
2022-09-04T13:44:29.126Z,28.60
2022-09-04T13:47:08.058Z,28.60
2022-09-04T14:03:15.302Z,28.70
2022-09-04T14:05:52.994Z,28.70
2022-09-04T14:08:21.637Z,28.80
2022-09-04T14:11:26.124Z,28.80
2022-09-04T14:14:24.572Z,28.90
2022-09-04T14:17:00.461Z,28.90
2022-09-04T14:19:58.988Z,28.90
2022-09-04T14:22:46.240Z,29.00
2022-09-04T14:25:22.306Z,29.00
2022-09-04T14:28:09.485Z,29.10
2022-09-04T14:30:45.622Z,29.10
2022-09-04T14:33:37.075Z,29.10
2022-09-04T14:36:26.586Z,29.10
2022-09-04T14:39:16.572Z,29.00
2022-09-04T14:42:12.202Z,29.00
2022-09-04T14:47:56.465Z,29.00
2022-09-04T14:50:46.608Z,29.00
2022-09-04T14:53:26.320Z,29.00
2022-09-04T14:56:16.865Z,29.10
2022-09-04T14:58:55.457Z,29.10
2022-09-04T15:01:25.629Z,29.20
2022-09-04T15:04:00.203Z,29.20
2022-09-04T15:07:12.344Z,29.30
2022-09-04T15:09:43.821Z,29.30
2022-09-04T15:12:24.775Z,29.30
2022-09-04T15:15:08.515Z,29.30
2022-09-04T15:17:51.520Z,29.30
2022-09-04T15:20:40.641Z,29.30
2022-09-04T15:23:23.429Z,29.40
2022-09-04T15:26:06.542Z,29.40
2022-09-04T15:31:38.527Z,29.30
2022-09-04T15:34:11.139Z,29.30
2022-09-04T15:36:39.762Z,29.30
2022-09-04T15:39:28.137Z,29.20
2022-09-04T15:42:34.154Z,29.20
2022-09-04T15:45:18.314Z,29.20
2022-09-04T15:47:58.629Z,29.10
2022-09-04T15:50:34.658Z,29.10
2022-09-04T15:53:26.329Z,29.10
2022-09-04T15:56:09.615Z,29.10
2022-09-04T15:58:55.074Z,29.10
2022-09-04T16:01:31.660Z,29.10
2022-09-04T16:04:07.212Z,29.10
2022-09-04T16:06:47.972Z,29.10
2022-09-04T16:09:38.719Z,29.10
2022-09-04T16:12:15.050Z,29.20
2022-09-04T16:14:48.391Z,29.10
2022-09-04T16:17:22.497Z,29.20
2022-09-04T16:20:07.833Z,29.20
2022-09-04T16:22:43.996Z,29.20
2022-09-04T16:25:23.987Z,29.10
2022-09-04T16:28:10.668Z,29.10
2022-09-04T16:30:47.035Z,29.00
2022-09-04T16:33:28.083Z,28.90
2022-09-04T16:36:11.343Z,28.90
2022-09-04T16:38:47.767Z,28.90
2022-09-04T16:44:25.802Z,28.80
2022-09-04T16:47:12.477Z,28.70
2022-09-04T16:56:13.069Z,28.40
2022-09-04T16:59:04.971Z,28.30
2022-09-04T17:08:43.477Z,28.10
2022-09-04T17:11:16.212Z,27.90
2022-09-04T17:17:30.583Z,27.70
2022-09-04T17:20:10.263Z,27.60
2022-09-04T17:28:57.382Z,27.50
2022-09-04T17:28:58.960Z,27.60
2022-09-04T17:29:34.287Z,27.40
2022-09-04T17:31:57.659Z,27.40
2022-09-04T17:40:38.801Z,27.30
2022-09-04T17:40:50.007Z,27.30
2022-09-04T17:41:39.607Z,27.20
2022-09-04T17:44:55.074Z,27.20
2022-09-04T17:47:32.807Z,27.00
2022-09-04T17:50:03.244Z,27.00
2022-09-04T17:52:34.094Z,26.90
2022-09-04T17:55:08.164Z,26.90
2022-09-04T17:57:52.628Z,26.80
2022-09-04T18:00:21.686Z,26.80
2022-09-04T18:03:07.822Z,26.80
2022-09-04T18:05:53.496Z,26.70
2022-09-04T18:08:44.727Z,26.60
2022-09-04T18:11:25.919Z,26.60
2022-09-04T18:14:11.189Z,26.50
2022-09-04T18:19:45.579Z,26.40
2022-09-04T18:22:33.688Z,26.30
2022-09-04T18:28:06.379Z,26.20
2022-09-04T18:37:10.076Z,26.10
2022-09-04T18:37:16.434Z,26.00
2022-09-04T18:37:24.174Z,25.90
2022-09-04T18:40:08.986Z,25.80
2022-09-04T18:50:25.656Z,25.70
2022-09-04T18:50:35.604Z,25.50
2022-09-04T18:50:39.224Z,25.60
2022-09-04T18:52:12.196Z,25.40
2022-09-04T18:54:46.337Z,25.30
2022-09-04T18:57:28.203Z,25.20
2022-09-04T19:00:14.219Z,25.10
2022-09-04T19:02:53.479Z,25.10
2022-09-04T19:05:24.536Z,25.00
2022-09-04T19:07:59.095Z,24.90
2022-09-04T19:10:29.982Z,24.90
2022-09-04T19:13:10.680Z,24.80
2022-09-04T19:16:02.666Z,24.80
2022-09-04T19:18:45.364Z,24.70
2022-09-04T19:21:36.631Z,24.60
2022-09-04T19:24:23.593Z,24.60
2022-09-04T19:27:27.561Z,24.50
2022-09-04T19:30:19.810Z,24.40
2022-09-04T19:33:07.577Z,24.30
2022-09-04T19:35:43.673Z,24.30
2022-09-04T19:42:16.955Z,24.20
2022-09-04T19:46:00.639Z,24.20
2022-09-04T19:46:24.941Z,24.10
2022-09-04T19:47:27.638Z,24.00
2022-09-04T19:53:33.252Z,23.90
2022-09-04T19:53:34.520Z,24.00
2022-09-04T19:56:16.859Z,23.90
2022-09-04T19:59:06.735Z,23.80
2022-09-04T20:02:02.723Z,23.80
2022-09-04T20:04:41.124Z,23.70
2022-09-04T20:07:29.192Z,23.60
2022-09-04T20:10:02.018Z,23.60
2022-09-04T20:12:34.964Z,23.50
2022-09-04T20:15:12.163Z,23.60
2022-09-04T20:18:04.563Z,23.50
2022-09-04T20:20:56.249Z,23.50
2022-09-04T20:23:37.651Z,23.40
2022-09-04T20:26:10.806Z,23.30
2022-09-04T20:29:04.602Z,23.30
2022-09-04T20:31:50.312Z,23.30
2022-09-04T20:34:46.271Z,23.20
2022-09-04T20:37:41.055Z,23.20
2022-09-04T20:40:22.154Z,23.10
2022-09-04T20:43:23.667Z,23.10
2022-09-04T20:52:45.747Z,23.10
2022-09-04T20:52:53.516Z,23.00
2022-09-04T20:53:11.131Z,22.90
2022-09-04T20:56:03.098Z,23.00
2022-09-04T21:03:11.577Z,22.90
2022-09-04T21:03:14.506Z,22.90
2022-09-04T21:05:50.759Z,22.80
2022-09-04T21:08:50.035Z,22.80
2022-09-04T21:11:40.720Z,22.70
2022-09-04T21:14:17.731Z,22.70
2022-09-04T21:17:35.007Z,22.60
2022-09-04T21:20:46.211Z,22.60
2022-09-04T21:24:03.636Z,22.60
2022-09-04T21:27:08.979Z,22.50
2022-09-04T21:30:03.773Z,22.50
2022-09-04T21:32:48.496Z,22.50
2022-09-04T21:35:21.186Z,22.50
2022-09-04T21:37:59.140Z,22.40
2022-09-04T21:40:54.850Z,22.40
2022-09-04T21:43:54.154Z,22.40
2022-09-04T21:46:57.255Z,22.40
2022-09-04T21:50:23.031Z,22.40
2022-09-04T21:53:36.288Z,22.30
2022-09-04T22:02:25.240Z,22.30
2022-09-04T22:02:42.627Z,22.30
2022-09-04T22:03:39.314Z,22.20
2022-09-04T22:06:34.890Z,22.20
2022-09-04T22:13:30.993Z,22.20
2022-09-04T22:13:43.867Z,22.10
2022-09-04T22:15:25.015Z,22.10
2022-09-04T22:18:24.653Z,22.10
2022-09-04T22:21:21.170Z,22.10
2022-09-04T22:24:29.741Z,22.10
2022-09-04T22:28:01.176Z,22.10
2022-09-04T22:30:35.075Z,22.00
2022-09-04T22:34:16.600Z,22.00
2022-09-04T22:37:33.889Z,22.00
2022-09-04T22:40:24.884Z,21.90
2022-09-04T22:43:12.880Z,21.90
2022-09-04T22:46:30.843Z,21.90
2022-09-04T22:49:28.831Z,21.90
2022-09-04T22:52:39.332Z,21.80
2022-09-04T22:55:40.464Z,21.90
2022-09-04T22:59:20.492Z,21.80
2022-09-04T23:02:54.132Z,21.80
2022-09-04T23:08:17.644Z,21.70
2022-09-04T23:13:51.499Z,21.70
2022-09-04T23:14:00.920Z,21.70
2022-09-04T23:16:10.979Z,21.60
2022-09-04T23:23:40.140Z,21.60
2022-09-04T23:26:33.168Z,21.60
2022-09-04T23:26:43.940Z,21.50
2022-09-04T23:28:28.285Z,21.50
2022-09-04T23:31:27.478Z,21.50
2022-09-04T23:34:27.558Z,21.50
2022-09-04T23:37:41.345Z,21.40
2022-09-04T23:40:51.178Z,21.40
2022-09-04T23:43:55.099Z,21.40
2022-09-04T23:46:53.003Z,21.30
2022-09-04T23:49:53.041Z,21.30
2022-09-04T23:52:48.569Z,21.30
2022-09-04T23:55:37.280Z,21.30
2022-09-04T23:58:57.341Z,21.30
